sensor_id;sensor_type;location;lat;lon;timestamp;P1;durP1;ratioP1;P2;durP2;ratioP2
29422;SDS011;16399;51.686;8.684;2023-06-14T00:00:44;5.75;;;2.55;;
29422;SDS011;16399;51.686;8.684;2023-06-14T00:03:48;11.28;;;2.58;;
29422;SDS011;16399;51.686;8.684;2023-06-14T00:06:50;8.90;;;2.55;;
29422;SDS011;16399;51.686;8.684;2023-06-14T00:09:53;5.05;;;2.42;;
29422;SDS011;16399;51.686;8.684;2023-06-14T00:12:55;6.72;;;2.10;;
29422;SDS011;16399;51.686;8.684;2023-06-14T00:15:57;4.58;;;1.98;;
29422;SDS011;16399;51.686;8.684;2023-06-14T00:19:00;4.95;;;2.33;;
29422;SDS011;16399;51.686;8.684;2023-06-14T00:22:06;6.60;;;2.77;;
29422;SDS011;16399;51.686;8.684;2023-06-14T00:25:08;5.45;;;2.30;;
29422;SDS011;16399;51.686;8.684;2023-06-14T00:28:10;4.87;;;2.47;;
29422;SDS011;16399;51.686;8.684;2023-06-14T00:31:13;4.17;;;2.22;;
29422;SDS011;16399;51.686;8.684;2023-06-14T00:34:15;3.98;;;2.05;;
29422;SDS011;16399;51.686;8.684;2023-06-14T00:37:17;4.67;;;2.25;;
29422;SDS011;16399;51.686;8.684;2023-06-14T00:40:19;4.65;;;2.20;;
29422;SDS011;16399;51.686;8.684;2023-06-14T00:43:22;6.55;;;2.20;;
29422;SDS011;16399;51.686;8.684;2023-06-14T00:46:26;5.67;;;2.03;;
29422;SDS011;16399;51.686;8.684;2023-06-14T00:49:28;7.25;;;2.20;;
29422;SDS011;16399;51.686;8.684;2023-06-14T00:52:31;4.75;;;2.35;;
29422;SDS011;16399;51.686;8.684;2023-06-14T00:55:33;8.65;;;2.15;;
29422;SDS011;16399;51.686;8.684;2023-06-14T00:58:36;5.58;;;2.35;;
29422;SDS011;16399;51.686;8.684;2023-06-14T01:01:38;5.00;;;2.12;;
29422;SDS011;16399;51.686;8.684;2023-06-14T01:04:41;7.72;;;2.22;;
29422;SDS011;16399;51.686;8.684;2023-06-14T01:11:16;8.23;;;2.70;;
29422;SDS011;16399;51.686;8.684;2023-06-14T01:14:18;4.78;;;2.12;;
29422;SDS011;16399;51.686;8.684;2023-06-14T01:17:22;8.08;;;2.20;;
29422;SDS011;16399;51.686;8.684;2023-06-14T01:20:27;7.37;;;2.37;;
29422;SDS011;16399;51.686;8.684;2023-06-14T01:23:31;5.92;;;2.55;;
29422;SDS011;16399;51.686;8.684;2023-06-14T01:26:34;6.20;;;2.30;;
29422;SDS011;16399;51.686;8.684;2023-06-14T01:29:38;5.00;;;2.17;;
29422;SDS011;16399;51.686;8.684;2023-06-14T01:32:43;8.08;;;2.25;;
29422;SDS011;16399;51.686;8.684;2023-06-14T01:35:48;7.30;;;2.00;;
29422;SDS011;16399;51.686;8.684;2023-06-14T01:38:52;8.98;;;2.55;;
29422;SDS011;16399;51.686;8.684;2023-06-14T01:45:35;4.47;;;2.00;;
29422;SDS011;16399;51.686;8.684;2023-06-14T01:48:39;3.90;;;2.05;;
29422;SDS011;16399;51.686;8.684;2023-06-14T01:51:41;4.30;;;2.02;;
29422;SDS011;16399;51.686;8.684;2023-06-14T01:54:44;7.40;;;2.40;;
29422;SDS011;16399;51.686;8.684;2023-06-14T01:57:48;5.25;;;1.95;;
29422;SDS011;16399;51.686;8.684;2023-06-14T02:00:50;3.42;;;2.05;;
29422;SDS011;16399;51.686;8.684;2023-06-14T02:03:54;8.20;;;3.30;;
29422;SDS011;16399;51.686;8.684;2023-06-14T02:06:56;6.28;;;2.12;;
29422;SDS011;16399;51.686;8.684;2023-06-14T02:09:59;5.33;;;2.25;;
29422;SDS011;16399;51.686;8.684;2023-06-14T02:13:01;6.05;;;2.45;;
29422;SDS011;16399;51.686;8.684;2023-06-14T02:16:03;5.65;;;2.33;;
29422;SDS011;16399;51.686;8.684;2023-06-14T02:19:06;5.33;;;2.12;;
29422;SDS011;16399;51.686;8.684;2023-06-14T02:22:08;3.98;;;2.12;;
29422;SDS011;16399;51.686;8.684;2023-06-14T02:25:10;3.92;;;2.10;;
29422;SDS011;16399;51.686;8.684;2023-06-14T02:28:13;5.08;;;2.25;;
29422;SDS011;16399;51.686;8.684;2023-06-14T02:31:15;5.62;;;2.50;;
29422;SDS011;16399;51.686;8.684;2023-06-14T02:34:17;5.20;;;1.95;;
29422;SDS011;16399;51.686;8.684;2023-06-14T02:37:21;6.17;;;2.20;;
29422;SDS011;16399;51.686;8.684;2023-06-14T02:40:23;4.15;;;1.90;;
29422;SDS011;16399;51.686;8.684;2023-06-14T02:43:25;8.00;;;2.10;;
29422;SDS011;16399;51.686;8.684;2023-06-14T02:46:27;9.83;;;2.62;;
29422;SDS011;16399;51.686;8.684;2023-06-14T02:49:30;5.33;;;2.10;;
29422;SDS011;16399;51.686;8.684;2023-06-14T02:52:33;4.70;;;2.40;;
29422;SDS011;16399;51.686;8.684;2023-06-14T02:55:35;5.70;;;2.22;;
29422;SDS011;16399;51.686;8.684;2023-06-14T02:58:39;5.93;;;2.40;;
29422;SDS011;16399;51.686;8.684;2023-06-14T03:01:41;7.40;;;2.47;;
29422;SDS011;16399;51.686;8.684;2023-06-14T03:04:44;10.80;;;1.95;;
29422;SDS011;16399;51.686;8.684;2023-06-14T03:07:47;4.70;;;1.92;;
29422;SDS011;16399;51.686;8.684;2023-06-14T03:10:50;4.60;;;2.30;;
29422;SDS011;16399;51.686;8.684;2023-06-14T03:13:53;3.80;;;1.90;;
29422;SDS011;16399;51.686;8.684;2023-06-14T03:16:56;7.47;;;2.15;;
29422;SDS011;16399;51.686;8.684;2023-06-14T03:19:59;4.78;;;2.02;;
29422;SDS011;16399;51.686;8.684;2023-06-14T03:23:02;7.47;;;2.17;;
29422;SDS011;16399;51.686;8.684;2023-06-14T03:26:05;8.68;;;2.50;;
29422;SDS011;16399;51.686;8.684;2023-06-14T03:29:08;10.05;;;2.55;;
29422;SDS011;16399;51.686;8.684;2023-06-14T03:32:10;3.92;;;2.20;;
29422;SDS011;16399;51.686;8.684;2023-06-14T03:35:13;5.33;;;2.20;;
29422;SDS011;16399;51.686;8.684;2023-06-14T03:38:18;6.22;;;2.08;;
29422;SDS011;16399;51.686;8.684;2023-06-14T03:41:20;4.45;;;2.10;;
29422;SDS011;16399;51.686;8.684;2023-06-14T03:44:23;4.83;;;2.40;;
29422;SDS011;16399;51.686;8.684;2023-06-14T03:47:26;5.60;;;2.05;;
29422;SDS011;16399;51.686;8.684;2023-06-14T03:50:29;6.75;;;2.02;;
29422;SDS011;16399;51.686;8.684;2023-06-14T03:53:32;5.40;;;2.25;;
29422;SDS011;16399;51.686;8.684;2023-06-14T03:56:36;5.03;;;2.22;;
29422;SDS011;16399;51.686;8.684;2023-06-14T03:59:38;6.47;;;2.10;;
29422;SDS011;16399;51.686;8.684;2023-06-14T04:02:41;8.73;;;1.90;;
29422;SDS011;16399;51.686;8.684;2023-06-14T04:05:44;4.42;;;2.37;;
29422;SDS011;16399;51.686;8.684;2023-06-14T04:08:48;12.77;;;2.73;;
29422;SDS011;16399;51.686;8.684;2023-06-14T04:11:51;5.12;;;2.40;;
29422;SDS011;16399;51.686;8.684;2023-06-14T04:14:54;3.55;;;1.98;;
29422;SDS011;16399;51.686;8.684;2023-06-14T04:17:56;4.85;;;2.08;;
29422;SDS011;16399;51.686;8.684;2023-06-14T04:20:58;6.22;;;2.55;;
29422;SDS011;16399;51.686;8.684;2023-06-14T04:24:01;4.70;;;2.37;;
29422;SDS011;16399;51.686;8.684;2023-06-14T04:27:04;4.42;;;1.90;;
29422;SDS011;16399;51.686;8.684;2023-06-14T04:30:07;5.28;;;2.20;;
29422;SDS011;16399;51.686;8.684;2023-06-14T04:33:09;6.28;;;2.02;;
29422;SDS011;16399;51.686;8.684;2023-06-14T04:36:12;8.03;;;2.05;;
29422;SDS011;16399;51.686;8.684;2023-06-14T04:39:16;3.67;;;1.82;;
29422;SDS011;16399;51.686;8.684;2023-06-14T04:42:19;4.85;;;2.22;;
29422;SDS011;16399;51.686;8.684;2023-06-14T04:45:21;5.45;;;2.10;;
29422;SDS011;16399;51.686;8.684;2023-06-14T04:48:24;4.87;;;2.02;;
29422;SDS011;16399;51.686;8.684;2023-06-14T04:51:26;5.08;;;2.20;;
29422;SDS011;16399;51.686;8.684;2023-06-14T04:54:30;4.45;;;1.95;;
29422;SDS011;16399;51.686;8.684;2023-06-14T04:57:34;5.95;;;2.20;;
29422;SDS011;16399;51.686;8.684;2023-06-14T05:00:38;6.70;;;2.30;;
29422;SDS011;16399;51.686;8.684;2023-06-14T05:03:42;8.60;;;2.17;;
29422;SDS011;16399;51.686;8.684;2023-06-14T05:06:45;6.40;;;2.50;;
29422;SDS011;16399;51.686;8.684;2023-06-14T05:09:50;6.37;;;2.05;;
29422;SDS011;16399;51.686;8.684;2023-06-14T05:12:52;9.50;;;2.15;;
29422;SDS011;16399;51.686;8.684;2023-06-14T05:15:55;7.08;;;2.15;;
29422;SDS011;16399;51.686;8.684;2023-06-14T05:18:57;7.35;;;2.10;;
29422;SDS011;16399;51.686;8.684;2023-06-14T05:22:00;5.90;;;2.45;;
29422;SDS011;16399;51.686;8.684;2023-06-14T05:25:03;6.17;;;2.15;;
29422;SDS011;16399;51.686;8.684;2023-06-14T05:28:05;4.58;;;2.25;;
29422;SDS011;16399;51.686;8.684;2023-06-14T05:31:08;7.90;;;1.80;;
29422;SDS011;16399;51.686;8.684;2023-06-14T05:34:10;9.08;;;2.65;;
29422;SDS011;16399;51.686;8.684;2023-06-14T05:37:12;6.37;;;1.80;;
29422;SDS011;16399;51.686;8.684;2023-06-14T05:40:15;4.40;;;1.80;;
29422;SDS011;16399;51.686;8.684;2023-06-14T05:43:18;8.53;;;1.82;;
29422;SDS011;16399;51.686;8.684;2023-06-14T05:46:20;3.92;;;1.90;;
29422;SDS011;16399;51.686;8.684;2023-06-14T05:49:26;8.98;;;1.87;;
29422;SDS011;16399;51.686;8.684;2023-06-14T05:52:28;4.40;;;1.70;;
29422;SDS011;16399;51.686;8.684;2023-06-14T05:55:31;3.15;;;1.40;;
29422;SDS011;16399;51.686;8.684;2023-06-14T05:58:34;4.20;;;1.45;;
29422;SDS011;16399;51.686;8.684;2023-06-14T06:01:36;3.55;;;1.45;;
29422;SDS011;16399;51.686;8.684;2023-06-14T06:04:40;2.65;;;1.30;;
29422;SDS011;16399;51.686;8.684;2023-06-14T06:07:42;2.87;;;1.40;;
29422;SDS011;16399;51.686;8.684;2023-06-14T06:10:45;6.72;;;1.60;;
29422;SDS011;16399;51.686;8.684;2023-06-14T06:13:48;3.10;;;1.52;;
29422;SDS011;16399;51.686;8.684;2023-06-14T06:16:51;3.75;;;1.50;;
29422;SDS011;16399;51.686;8.684;2023-06-14T06:19:53;3.02;;;1.40;;
29422;SDS011;16399;51.686;8.684;2023-06-14T06:22:56;3.50;;;2.00;;
29422;SDS011;16399;51.686;8.684;2023-06-14T06:25:59;5.58;;;1.50;;
29422;SDS011;16399;51.686;8.684;2023-06-14T06:29:01;3.40;;;1.62;;
29422;SDS011;16399;51.686;8.684;2023-06-14T06:32:03;3.83;;;2.00;;
29422;SDS011;16399;51.686;8.684;2023-06-14T06:35:06;7.17;;;2.02;;
29422;SDS011;16399;51.686;8.684;2023-06-14T06:38:10;4.37;;;1.40;;
29422;SDS011;16399;51.686;8.684;2023-06-14T06:41:13;3.52;;;1.40;;
29422;SDS011;16399;51.686;8.684;2023-06-14T06:44:15;5.35;;;1.30;;
29422;SDS011;16399;51.686;8.684;2023-06-14T06:47:17;3.70;;;1.65;;
29422;SDS011;16399;51.686;8.684;2023-06-14T06:50:20;4.50;;;1.62;;
29422;SDS011;16399;51.686;8.684;2023-06-14T06:53:24;2.77;;;1.37;;
29422;SDS011;16399;51.686;8.684;2023-06-14T06:56:26;3.95;;;1.50;;
29422;SDS011;16399;51.686;8.684;2023-06-14T06:59:28;3.67;;;1.40;;
29422;SDS011;16399;51.686;8.684;2023-06-14T07:02:31;4.53;;;1.45;;
29422;SDS011;16399;51.686;8.684;2023-06-14T07:05:33;3.90;;;1.30;;
29422;SDS011;16399;51.686;8.684;2023-06-14T07:08:35;5.35;;;1.70;;
29422;SDS011;16399;51.686;8.684;2023-06-14T07:11:39;3.50;;;1.37;;
29422;SDS011;16399;51.686;8.684;2023-06-14T07:14:42;4.37;;;1.37;;
29422;SDS011;16399;51.686;8.684;2023-06-14T07:17:44;6.30;;;1.50;;
29422;SDS011;16399;51.686;8.684;2023-06-14T07:20:47;4.37;;;1.40;;
29422;SDS011;16399;51.686;8.684;2023-06-14T07:23:49;3.40;;;1.50;;
29422;SDS011;16399;51.686;8.684;2023-06-14T07:26:51;10.05;;;1.57;;
29422;SDS011;16399;51.686;8.684;2023-06-14T07:29:54;3.40;;;1.40;;
29422;SDS011;16399;51.686;8.684;2023-06-14T07:32:56;5.17;;;1.20;;
29422;SDS011;16399;51.686;8.684;2023-06-14T07:35:58;3.50;;;1.60;;
29422;SDS011;16399;51.686;8.684;2023-06-14T07:39:01;9.65;;;1.40;;
29422;SDS011;16399;51.686;8.684;2023-06-14T07:42:04;9.35;;;1.55;;
29422;SDS011;16399;51.686;8.684;2023-06-14T07:45:07;4.37;;;1.40;;
29422;SDS011;16399;51.686;8.684;2023-06-14T07:48:09;2.47;;;1.35;;
29422;SDS011;16399;51.686;8.684;2023-06-14T07:51:11;5.50;;;1.70;;
29422;SDS011;16399;51.686;8.684;2023-06-14T07:54:14;4.58;;;1.90;;
29422;SDS011;16399;51.686;8.684;2023-06-14T07:57:17;4.25;;;1.40;;
29422;SDS011;16399;51.686;8.684;2023-06-14T08:00:20;4.13;;;1.77;;
29422;SDS011;16399;51.686;8.684;2023-06-14T08:03:23;3.62;;;1.50;;
29422;SDS011;16399;51.686;8.684;2023-06-14T08:06:25;3.17;;;1.60;;
29422;SDS011;16399;51.686;8.684;2023-06-14T08:09:27;6.87;;;1.67;;
29422;SDS011;16399;51.686;8.684;2023-06-14T08:12:30;4.67;;;1.60;;
29422;SDS011;16399;51.686;8.684;2023-06-14T08:15:32;7.30;;;1.82;;
29422;SDS011;16399;51.686;8.684;2023-06-14T08:18:35;5.90;;;1.67;;
29422;SDS011;16399;51.686;8.684;2023-06-14T08:21:37;3.42;;;1.60;;
29422;SDS011;16399;51.686;8.684;2023-06-14T08:24:40;3.60;;;1.52;;
29422;SDS011;16399;51.686;8.684;2023-06-14T08:27:42;3.20;;;1.55;;
29422;SDS011;16399;51.686;8.684;2023-06-14T08:30:45;4.90;;;1.95;;
29422;SDS011;16399;51.686;8.684;2023-06-14T08:33:47;3.72;;;1.67;;
29422;SDS011;16399;51.686;8.684;2023-06-14T08:36:50;6.83;;;1.70;;
29422;SDS011;16399;51.686;8.684;2023-06-14T08:39:52;2.85;;;1.50;;
29422;SDS011;16399;51.686;8.684;2023-06-14T08:42:54;5.75;;;1.80;;
29422;SDS011;16399;51.686;8.684;2023-06-14T08:46:03;6.95;;;1.80;;
29422;SDS011;16399;51.686;8.684;2023-06-14T08:49:12;4.15;;;1.90;;
29422;SDS011;16399;51.686;8.684;2023-06-14T08:52:16;4.37;;;1.65;;
29422;SDS011;16399;51.686;8.684;2023-06-14T08:55:22;4.97;;;1.70;;
29422;SDS011;16399;51.686;8.684;2023-06-14T08:58:29;4.97;;;1.90;;
29422;SDS011;16399;51.686;8.684;2023-06-14T09:01:33;4.78;;;1.70;;
29422;SDS011;16399;51.686;8.684;2023-06-14T09:07:40;4.87;;;1.77;;
29422;SDS011;16399;51.686;8.684;2023-06-14T09:10:44;5.75;;;1.90;;
29422;SDS011;16399;51.686;8.684;2023-06-14T09:13:47;4.78;;;1.70;;
29422;SDS011;16399;51.686;8.684;2023-06-14T09:16:53;4.57;;;1.97;;
29422;SDS011;16399;51.686;8.684;2023-06-14T09:19:56;6.53;;;1.57;;
29422;SDS011;16399;51.686;8.684;2023-06-14T09:23:00;3.40;;;1.80;;
29422;SDS011;16399;51.686;8.684;2023-06-14T09:26:13;3.35;;;1.60;;
29422;SDS011;16399;51.686;8.684;2023-06-14T09:29:17;5.35;;;1.80;;
29422;SDS011;16399;51.686;8.684;2023-06-14T09:32:22;4.90;;;1.95;;
29422;SDS011;16399;51.686;8.684;2023-06-14T09:35:26;5.35;;;1.72;;
29422;SDS011;16399;51.686;8.684;2023-06-14T09:38:30;3.15;;;1.77;;
29422;SDS011;16399;51.686;8.684;2023-06-14T09:41:33;4.47;;;1.72;;
29422;SDS011;16399;51.686;8.684;2023-06-14T09:44:36;5.58;;;2.25;;
29422;SDS011;16399;51.686;8.684;2023-06-14T09:47:38;3.72;;;2.08;;
29422;SDS011;16399;51.686;8.684;2023-06-14T09:50:41;4.30;;;1.70;;
29422;SDS011;16399;51.686;8.684;2023-06-14T09:53:44;3.60;;;1.80;;
29422;SDS011;16399;51.686;8.684;2023-06-14T09:56:48;4.05;;;1.80;;
29422;SDS011;16399;51.686;8.684;2023-06-14T09:59:58;5.60;;;2.02;;
29422;SDS011;16399;51.686;8.684;2023-06-14T10:03:14;5.00;;;1.90;;
29422;SDS011;16399;51.686;8.684;2023-06-14T10:06:18;4.92;;;1.90;;
29422;SDS011;16399;51.686;8.684;2023-06-14T10:09:24;5.53;;;1.92;;
29422;SDS011;16399;51.686;8.684;2023-06-14T10:12:27;5.45;;;2.27;;
29422;SDS011;16399;51.686;8.684;2023-06-14T10:15:32;3.62;;;1.65;;
29422;SDS011;16399;51.686;8.684;2023-06-14T10:18:48;4.22;;;1.80;;
29422;SDS011;16399;51.686;8.684;2023-06-14T10:22:12;2.40;;;1.50;;
29422;SDS011;16399;51.686;8.684;2023-06-14T10:25:31;5.87;;;2.35;;
29422;SDS011;16399;51.686;8.684;2023-06-14T10:32:31;4.00;;;1.95;;
29422;SDS011;16399;51.686;8.684;2023-06-14T10:35:34;4.00;;;2.10;;
29422;SDS011;16399;51.686;8.684;2023-06-14T10:38:36;4.55;;;1.90;;
29422;SDS011;16399;51.686;8.684;2023-06-14T10:41:39;3.37;;;2.00;;
29422;SDS011;16399;51.686;8.684;2023-06-14T10:44:55;3.15;;;1.87;;
29422;SDS011;16399;51.686;8.684;2023-06-14T10:48:00;4.50;;;1.90;;
29422;SDS011;16399;51.686;8.684;2023-06-14T10:51:03;4.65;;;2.00;;
29422;SDS011;16399;51.686;8.684;2023-06-14T10:54:05;3.67;;;1.87;;
29422;SDS011;16399;51.686;8.684;2023-06-14T10:57:11;3.02;;;1.50;;
29422;SDS011;16399;51.686;8.684;2023-06-14T11:00:14;6.05;;;1.72;;
29422;SDS011;16399;51.686;8.684;2023-06-14T11:06:28;4.47;;;1.77;;
29422;SDS011;16399;51.686;8.684;2023-06-14T11:12:54;5.25;;;2.10;;
29422;SDS011;16399;51.686;8.684;2023-06-14T11:15:57;4.40;;;1.77;;
29422;SDS011;16399;51.686;8.684;2023-06-14T11:19:02;3.52;;;2.10;;
29422;SDS011;16399;51.686;8.684;2023-06-14T11:22:05;4.42;;;2.00;;
29422;SDS011;16399;51.686;8.684;2023-06-14T11:25:11;3.95;;;2.00;;
29422;SDS011;16399;51.686;8.684;2023-06-14T11:28:13;3.27;;;1.75;;
29422;SDS011;16399;51.686;8.684;2023-06-14T11:31:15;5.15;;;1.67;;
29422;SDS011;16399;51.686;8.684;2023-06-14T11:34:19;5.15;;;1.82;;
29422;SDS011;16399;51.686;8.684;2023-06-14T11:37:22;3.22;;;1.65;;
29422;SDS011;16399;51.686;8.684;2023-06-14T11:40:25;5.60;;;1.90;;
29422;SDS011;16399;51.686;8.684;2023-06-14T11:43:29;3.62;;;1.70;;
29422;SDS011;16399;51.686;8.684;2023-06-14T11:46:33;4.83;;;1.82;;
29422;SDS011;16399;51.686;8.684;2023-06-14T11:49:36;3.30;;;1.77;;
29422;SDS011;16399;51.686;8.684;2023-06-14T11:52:38;5.22;;;1.77;;
29422;SDS011;16399;51.686;8.684;2023-06-14T11:55:41;7.70;;;2.10;;
29422;SDS011;16399;51.686;8.684;2023-06-14T12:01:47;3.67;;;2.02;;
29422;SDS011;16399;51.686;8.684;2023-06-14T12:04:50;6.35;;;1.95;;
29422;SDS011;16399;51.686;8.684;2023-06-14T12:07:59;4.25;;;1.80;;
29422;SDS011;16399;51.686;8.684;2023-06-14T12:11:03;10.70;;;1.85;;
29422;SDS011;16399;51.686;8.684;2023-06-14T12:14:05;7.20;;;1.82;;
29422;SDS011;16399;51.686;8.684;2023-06-14T12:17:09;3.72;;;2.02;;
29422;SDS011;16399;51.686;8.684;2023-06-14T12:20:12;4.37;;;1.55;;
29422;SDS011;16399;51.686;8.684;2023-06-14T12:23:16;3.55;;;1.62;;
29422;SDS011;16399;51.686;8.684;2023-06-14T12:26:19;6.87;;;1.90;;
29422;SDS011;16399;51.686;8.684;2023-06-14T12:29:22;5.20;;;2.08;;
29422;SDS011;16399;51.686;8.684;2023-06-14T12:32:24;3.95;;;1.98;;
29422;SDS011;16399;51.686;8.684;2023-06-14T12:35:26;8.20;;;2.17;;
29422;SDS011;16399;51.686;8.684;2023-06-14T12:38:29;5.87;;;1.82;;
29422;SDS011;16399;51.686;8.684;2023-06-14T12:41:31;4.92;;;1.90;;
29422;SDS011;16399;51.686;8.684;2023-06-14T12:44:33;3.10;;;1.70;;
29422;SDS011;16399;51.686;8.684;2023-06-14T12:47:37;11.12;;;2.20;;
29422;SDS011;16399;51.686;8.684;2023-06-14T12:50:40;5.20;;;1.67;;
29422;SDS011;16399;51.686;8.684;2023-06-14T12:53:42;6.28;;;1.90;;
29422;SDS011;16399;51.686;8.684;2023-06-14T12:56:45;5.15;;;1.90;;
29422;SDS011;16399;51.686;8.684;2023-06-14T12:59:48;3.00;;;1.70;;
29422;SDS011;16399;51.686;8.684;2023-06-14T13:02:50;4.05;;;1.95;;
29422;SDS011;16399;51.686;8.684;2023-06-14T13:05:52;3.72;;;1.80;;
29422;SDS011;16399;51.686;8.684;2023-06-14T13:08:55;4.75;;;1.90;;
29422;SDS011;16399;51.686;8.684;2023-06-14T13:11:59;2.83;;;1.70;;
29422;SDS011;16399;51.686;8.684;2023-06-14T13:15:02;5.83;;;1.95;;
29422;SDS011;16399;51.686;8.684;2023-06-14T13:18:04;3.52;;;1.60;;
29422;SDS011;16399;51.686;8.684;2023-06-14T13:21:07;5.90;;;1.77;;
29422;SDS011;16399;51.686;8.684;2023-06-14T13:24:09;4.03;;;2.05;;
29422;SDS011;16399;51.686;8.684;2023-06-14T13:27:11;5.33;;;1.65;;
29422;SDS011;16399;51.686;8.684;2023-06-14T13:30:14;5.30;;;1.80;;
29422;SDS011;16399;51.686;8.684;2023-06-14T13:33:17;5.75;;;1.72;;
29422;SDS011;16399;51.686;8.684;2023-06-14T13:36:19;8.45;;;1.75;;
29422;SDS011;16399;51.686;8.684;2023-06-14T13:39:21;3.22;;;1.67;;
29422;SDS011;16399;51.686;8.684;2023-06-14T13:42:23;5.08;;;2.08;;
29422;SDS011;16399;51.686;8.684;2023-06-14T13:45:26;2.72;;;1.60;;
29422;SDS011;16399;51.686;8.684;2023-06-14T13:48:28;3.35;;;1.60;;
29422;SDS011;16399;51.686;8.684;2023-06-14T13:51:30;5.25;;;1.70;;
29422;SDS011;16399;51.686;8.684;2023-06-14T13:54:33;5.80;;;1.72;;
29422;SDS011;16399;51.686;8.684;2023-06-14T13:57:37;3.50;;;2.00;;
29422;SDS011;16399;51.686;8.684;2023-06-14T14:00:39;3.35;;;1.52;;
29422;SDS011;16399;51.686;8.684;2023-06-14T14:03:41;5.05;;;1.92;;
29422;SDS011;16399;51.686;8.684;2023-06-14T14:06:45;3.47;;;1.87;;
29422;SDS011;16399;51.686;8.684;2023-06-14T14:09:48;4.62;;;1.50;;
29422;SDS011;16399;51.686;8.684;2023-06-14T14:12:50;3.27;;;1.55;;
29422;SDS011;16399;51.686;8.684;2023-06-14T14:15:54;3.10;;;1.50;;
29422;SDS011;16399;51.686;8.684;2023-06-14T14:18:56;2.72;;;1.50;;
29422;SDS011;16399;51.686;8.684;2023-06-14T14:21:58;3.35;;;1.40;;
29422;SDS011;16399;51.686;8.684;2023-06-14T14:25:01;3.00;;;1.62;;
29422;SDS011;16399;51.686;8.684;2023-06-14T14:28:04;3.40;;;1.72;;
29422;SDS011;16399;51.686;8.684;2023-06-14T14:31:06;6.80;;;1.72;;
29422;SDS011;16399;51.686;8.684;2023-06-14T14:34:08;4.15;;;1.50;;
29422;SDS011;16399;51.686;8.684;2023-06-14T14:37:10;4.33;;;2.05;;
29422;SDS011;16399;51.686;8.684;2023-06-14T14:40:14;2.98;;;1.67;;
29422;SDS011;16399;51.686;8.684;2023-06-14T14:43:17;2.70;;;1.30;;
29422;SDS011;16399;51.686;8.684;2023-06-14T14:46:19;5.08;;;1.87;;
29422;SDS011;16399;51.686;8.684;2023-06-14T14:49:21;4.47;;;1.45;;
29422;SDS011;16399;51.686;8.684;2023-06-14T14:52:23;3.25;;;1.45;;
29422;SDS011;16399;51.686;8.684;2023-06-14T14:55:27;4.83;;;1.40;;
29422;SDS011;16399;51.686;8.684;2023-06-14T14:58:29;4.67;;;1.47;;
29422;SDS011;16399;51.686;8.684;2023-06-14T15:01:31;4.40;;;1.37;;
29422;SDS011;16399;51.686;8.684;2023-06-14T15:04:34;3.80;;;1.67;;
29422;SDS011;16399;51.686;8.684;2023-06-14T15:07:36;2.22;;;1.20;;
29422;SDS011;16399;51.686;8.684;2023-06-14T15:10:40;3.43;;;1.40;;
29422;SDS011;16399;51.686;8.684;2023-06-14T15:13:43;2.80;;;1.47;;
29422;SDS011;16399;51.686;8.684;2023-06-14T15:16:45;4.20;;;1.67;;
29422;SDS011;16399;51.686;8.684;2023-06-14T15:19:48;4.62;;;1.70;;
29422;SDS011;16399;51.686;8.684;2023-06-14T15:22:50;2.40;;;1.40;;
29422;SDS011;16399;51.686;8.684;2023-06-14T15:25:52;3.92;;;1.15;;
29422;SDS011;16399;51.686;8.684;2023-06-14T15:28:55;4.28;;;1.40;;
29422;SDS011;16399;51.686;8.684;2023-06-14T15:31:57;2.98;;;1.30;;
29422;SDS011;16399;51.686;8.684;2023-06-14T15:34:59;3.40;;;1.65;;
29422;SDS011;16399;51.686;8.684;2023-06-14T15:38:02;4.17;;;1.57;;
29422;SDS011;16399;51.686;8.684;2023-06-14T15:41:04;2.95;;;1.40;;
29422;SDS011;16399;51.686;8.684;2023-06-14T15:44:08;3.20;;;1.35;;
29422;SDS011;16399;51.686;8.684;2023-06-14T15:47:11;2.67;;;1.37;;
29422;SDS011;16399;51.686;8.684;2023-06-14T15:50:14;4.58;;;2.10;;
29422;SDS011;16399;51.686;8.684;2023-06-14T15:53:16;3.90;;;1.52;;
29422;SDS011;16399;51.686;8.684;2023-06-14T15:56:19;5.80;;;1.62;;
29422;SDS011;16399;51.686;8.684;2023-06-14T15:59:21;3.85;;;1.98;;
29422;SDS011;16399;51.686;8.684;2023-06-14T16:02:23;4.55;;;2.35;;
29422;SDS011;16399;51.686;8.684;2023-06-14T16:05:26;9.23;;;3.10;;
29422;SDS011;16399;51.686;8.684;2023-06-14T16:08:28;6.10;;;1.75;;
29422;SDS011;16399;51.686;8.684;2023-06-14T16:11:30;4.83;;;1.67;;
29422;SDS011;16399;51.686;8.684;2023-06-14T16:14:33;5.47;;;1.65;;
29422;SDS011;16399;51.686;8.684;2023-06-14T16:17:35;3.95;;;1.85;;
29422;SDS011;16399;51.686;8.684;2023-06-14T16:20:37;3.33;;;1.80;;
29422;SDS011;16399;51.686;8.684;2023-06-14T16:23:40;5.42;;;1.80;;
29422;SDS011;16399;51.686;8.684;2023-06-14T16:26:42;3.62;;;1.70;;
29422;SDS011;16399;51.686;8.684;2023-06-14T16:29:45;7.10;;;2.20;;
29422;SDS011;16399;51.686;8.684;2023-06-14T16:32:47;4.78;;;2.10;;
29422;SDS011;16399;51.686;8.684;2023-06-14T16:35:49;8.48;;;2.25;;
29422;SDS011;16399;51.686;8.684;2023-06-14T16:38:51;7.08;;;1.80;;
29422;SDS011;16399;51.686;8.684;2023-06-14T16:41:54;4.90;;;1.80;;
29422;SDS011;16399;51.686;8.684;2023-06-14T16:44:56;5.67;;;2.37;;
29422;SDS011;16399;51.686;8.684;2023-06-14T16:48:00;6.55;;;2.12;;
29422;SDS011;16399;51.686;8.684;2023-06-14T16:51:03;6.55;;;2.10;;
29422;SDS011;16399;51.686;8.684;2023-06-14T16:54:06;4.87;;;1.82;;
29422;SDS011;16399;51.686;8.684;2023-06-14T16:57:08;4.97;;;2.35;;
29422;SDS011;16399;51.686;8.684;2023-06-14T17:00:12;5.70;;;2.27;;
29422;SDS011;16399;51.686;8.684;2023-06-14T17:03:14;5.80;;;2.15;;
29422;SDS011;16399;51.686;8.684;2023-06-14T17:06:17;6.25;;;2.12;;
29422;SDS011;16399;51.686;8.684;2023-06-14T17:12:23;7.53;;;2.42;;
29422;SDS011;16399;51.686;8.684;2023-06-14T17:15:25;6.28;;;2.40;;
29422;SDS011;16399;51.686;8.684;2023-06-14T17:18:27;5.25;;;2.65;;
29422;SDS011;16399;51.686;8.684;2023-06-14T17:21:30;9.65;;;2.67;;
29422;SDS011;16399;51.686;8.684;2023-06-14T17:24:33;8.83;;;2.83;;
29422;SDS011;16399;51.686;8.684;2023-06-14T17:27:35;5.12;;;1.98;;
29422;SDS011;16399;51.686;8.684;2023-06-14T17:30:37;6.78;;;2.22;;
29422;SDS011;16399;51.686;8.684;2023-06-14T17:33:40;7.25;;;2.70;;
29422;SDS011;16399;51.686;8.684;2023-06-14T17:36:42;6.62;;;2.30;;
29422;SDS011;16399;51.686;8.684;2023-06-14T17:39:44;7.12;;;2.30;;
29422;SDS011;16399;51.686;8.684;2023-06-14T17:42:47;8.40;;;2.20;;
29422;SDS011;16399;51.686;8.684;2023-06-14T17:45:49;4.42;;;2.27;;
29422;SDS011;16399;51.686;8.684;2023-06-14T17:48:51;8.30;;;2.90;;
29422;SDS011;16399;51.686;8.684;2023-06-14T17:51:54;6.05;;;2.47;;
29422;SDS011;16399;51.686;8.684;2023-06-14T17:54:56;6.12;;;2.70;;
29422;SDS011;16399;51.686;8.684;2023-06-14T17:57:58;9.08;;;2.70;;
29422;SDS011;16399;51.686;8.684;2023-06-14T18:01:01;9.50;;;2.35;;
29422;SDS011;16399;51.686;8.684;2023-06-14T18:04:03;4.90;;;2.70;;
29422;SDS011;16399;51.686;8.684;2023-06-14T18:07:06;8.13;;;2.60;;
29422;SDS011;16399;51.686;8.684;2023-06-14T18:10:08;7.67;;;2.60;;
29422;SDS011;16399;51.686;8.684;2023-06-14T18:13:10;6.62;;;2.27;;
29422;SDS011;16399;51.686;8.684;2023-06-14T18:16:13;6.70;;;2.33;;
29422;SDS011;16399;51.686;8.684;2023-06-14T18:19:16;7.65;;;2.55;;
29422;SDS011;16399;51.686;8.684;2023-06-14T18:22:18;7.25;;;2.60;;
29422;SDS011;16399;51.686;8.684;2023-06-14T18:25:21;5.20;;;2.60;;
29422;SDS011;16399;51.686;8.684;2023-06-14T18:28:23;5.37;;;2.60;;
29422;SDS011;16399;51.686;8.684;2023-06-14T18:31:26;7.28;;;2.40;;
29422;SDS011;16399;51.686;8.684;2023-06-14T18:34:28;8.88;;;2.75;;
29422;SDS011;16399;51.686;8.684;2023-06-14T18:37:30;7.75;;;2.75;;
29422;SDS011;16399;51.686;8.684;2023-06-14T18:40:33;6.47;;;2.50;;
29422;SDS011;16399;51.686;8.684;2023-06-14T18:43:37;5.80;;;2.30;;
29422;SDS011;16399;51.686;8.684;2023-06-14T18:46:40;9.30;;;2.55;;
29422;SDS011;16399;51.686;8.684;2023-06-14T18:49:43;4.67;;;2.23;;